• Join FlightAware (Why Join?)
  • Login
  • US Flag 
01:04AM EDT


 

Airport Tracker/Info


-or-


 

Live Flight TrackerFlight Track Log ✈ SWA315 ✈ 11-Apr-2013 ✈ KOAK - KPHX

Flight Track Log - Related Links

Times and Time Zones

All times are in EDT time to prevent confusion due to time zone crossing. See the SWA315 flight status page for this flight to view local times or setup timezone preferences in your user account.

Time Position Orientation Groundspeed Altitude Reporting Facility
EDT Latitude Longitude Course Direction KTS MPH feet Rate Location/Type
12:22AM 37.7333 -122.2500 288° West 156 180 1,400  Level Northern Cal TRACON
12:23AM 37.7472 -122.3050 288° West 224 258 3,000 2,340 Climbing Oakland Center
12:24AM 37.7667 -122.3833 287° West 228 262 6,100 3,420 Climbing Northern Cal TRACON
12:26AM 37.6814 -122.4869 224° Southwest 266 306 13,600 3,060 Climbing Oakland Center
12:28AM 37.5383 -122.4339 164° South 341 392 18,300 2,460 Climbing Los Angeles Center
12:29AM 37.4714 -122.3239 127° Southeast 374 430 20,700 2,400 Climbing Los Angeles Center
12:30AM 37.3978 -122.2172 131° Southeast 394 453 23,300 2,340 Climbing Los Angeles Center
12:31AM 37.3211 -122.0983 129° Southeast 418 481 25,600 2,040 Climbing Los Angeles Center
12:32AM 37.2244 -121.9569 131° Southeast 455 524 27,900 2,100 Climbing Oakland Center
12:33AM 37.1225 -121.8031 130° Southeast 478 550 30,300 2,040 Climbing Oakland Center
12:34AM 37.0336 -121.6753 131° Southeast 486 559 32,100 1,380 Climbing Oakland Center
12:35AM 36.9436 -121.5425 130° Southeast 496 571 33,200 1,320 Climbing Oakland Center
12:36AM 36.8511 -121.4028 130° Southeast 518 596 34,900 2,160 Climbing Oakland Center
12:37AM 36.7547 -121.2650 131° Southeast 511 588 37,600 1,980 Climbing Oakland Center
12:38AM 36.6683 -121.1358 130° Southeast 491 565 39,000 840 Climbing Oakland Center
12:39AM 36.5778 -121.0078 131° Southeast 492 566 39,400 540 Climbing Oakland Center
12:40AM 36.4847 -120.8714 130° Southeast 510 587 40,100 780 Climbing Oakland Center
12:41AM 36.3911 -120.7361 131° Southeast 517 595 41,000 420 Climbing Oakland Center
12:42AM 36.2989 -120.6042 131° Southeast 509 586 41,000  Level Oakland Center
12:43AM 36.2069 -120.4764 132° Southeast 500 575 41,000  Level Oakland Center
12:44AM 36.1158 -120.3461 131° Southeast 499 574 41,000  Level Oakland Center
12:45AM 36.0244 -120.2178 131° Southeast 496 571 41,000  Level Oakland Center
12:46AM 35.9333 -120.0892 131° Southeast 495 570 41,000  Level Oakland Center
12:47AM 35.8417 -119.9606 131° Southeast 495 570 41,000  Level Oakland Center
12:48AM 35.7514 -119.8344 131° Southeast 489 563 41,000  Level Oakland Center
12:49AM 35.6614 -119.7081 131° Southeast 489 563 41,000  Level Oakland Center
12:50AM 35.5708 -119.5831 132° Southeast 489 563 41,000  Level Oakland Center
12:51AM 35.4803 -119.4564 131° Southeast 491 565 41,000  Level Oakland Center
12:52AM 35.3886 -119.3308 132° Southeast 493 567 41,000  Level Oakland Center
12:53AM 35.3075 -119.1956 126° Southeast 493 567 41,000  Level Oakland Center
12:54AM 35.2258 -119.0583 126° Southeast 499 574 41,000  Level Oakland Center
12:55AM 35.1289 -118.8950 126° Southeast 495 570 41,000  Level Oakland Center
12:56AM 35.0506 -118.7592 125° Southeast 491 565 41,000  Level Oakland Center
12:57AM 34.9697 -118.6219 126° Southeast 496 571 41,000  Level Oakland Center
12:58AM 34.8783 -118.4733 127° Southeast 500 575 41,000  Level Los Angeles Center
01:00AM 34.7933 -118.3352 127° Southeast  Level FlightAware Approximate
01:00AM 34.7147 -118.2019 127° Southeast 502 578 41,000  Level Los Angeles Center
01:01AM 34.6358 -118.0664 125° Southeast 497 572 41,000  Level Los Angeles Center
01:02AM 34.5850 -117.9133 112° Southeast 493 567 41,000  Level Los Angeles Center
01:03AM 34.5303 -117.7283 110° East 491 565 41,000  Level Los Angeles Center
01:04AM 34.4847 -117.5756 110° East 488 562 41,000  Level Los Angeles Center
01:05AM 34.4392 -117.4236 110° East 484 557 41,000  Level Los Angeles Center
01:07AM 34.4031 -117.3017 110° East 484 557 41,000  Level Los Angeles Center
01:08AM 34.3519 -117.1158 108° East 487 560 41,000  Level Los Angeles Center
01:09AM 34.3089 -116.9597 108° East 489 563 41,000  Level Los Angeles Center
01:10AM 34.2633 -116.8044 110° East 492 566 41,000  Level Los Angeles Center
01:11AM 34.2194 -116.6478 109° East 494 568 41,000  Level Los Angeles Center
01:12AM 34.1658 -116.4586 109° East 497 572 41,000  Level Los Angeles Center
01:13AM 34.1225 -116.3011 108° East 493 567 41,000  Level Los Angeles Center
01:14AM 34.0600 -116.0825 109° East 491 565 41,000  Level Los Angeles Center
01:15AM 34.0139 -115.9242 109° East 497 572 41,000  Level Los Angeles Center
01:16AM 33.9667 -115.7636 109° East 505 581 41,000  Level Los Angeles Center
01:17AM 33.9214 -115.6089 109° East 492 566 41,000  Level Los Angeles Center
01:18AM 33.8756 -115.4539 110° East 490 564 41,000  Level Los Angeles Center
01:19AM 33.8297 -115.2986 110° East 492 566 41,000  Level Los Angeles Center
01:20AM 33.7828 -115.1403 110° East 503 579 41,000 -540 Level Los Angeles Center
01:21AM 33.7261 -114.9511 110° East 503 579 40,000 -1,800 Descending Los Angeles Center
01:22AM 33.6778 -114.7953 110° East 498 573 37,400 -2,760 Descending Los Angeles Center
01:23AM 33.6317 -114.6386 109° East 498 573 34,500 -3,000 Descending Los Angeles Center
01:24AM 33.5914 -114.4969 109° East 500 575 31,700 -2,880 Descending Albuquerque Center
01:25AM 33.5450 -114.3414 110° East 498 573 29,100 -2,460 Descending Albuquerque Center
01:26AM 33.4994 -114.1931 110° East 482 555 26,800 -2,040 Descending Albuquerque Center
01:27AM 33.4572 -114.0514 110° East 460 529 25,000 -900 Descending Albuquerque Center
01:28AM 33.4389 -113.9058 99° East 447 514 25,000  Level Albuquerque Center
01:29AM 33.4175 -113.7603 100° East 443 510 25,000 -420 Level Albuquerque Center
01:30AM 33.3972 -113.6136 99° East 445 512 24,200 -1,500 Descending Albuquerque Center
01:31AM 33.3769 -113.4717 100° East 438 504 22,000 -2,280 Descending Albuquerque Center
01:32AM 33.3575 -113.3342 100° East 425 489 19,700 -2,340 Descending Albuquerque Center
01:33AM 33.3381 -113.2044 100° East 405 466 17,400 -2,280 Descending Albuquerque Center
01:34AM 33.3197 -113.0811 100° East 385 443 15,200 -2,100 Descending Albuquerque Center
01:35AM 33.3025 -112.9633 100° East 367 422 13,200 -1,740 Descending Albuquerque Center
01:36AM 33.2847 -112.8519 101° East 350 403 11,700 -1,380 Descending Albuquerque Center
01:37AM 33.3039 -112.7567 76° East 310 357 10,500 -900 Descending Albuquerque Center
01:38AM 33.3353 -112.6703 66° East 288 331 9,900 -840 Descending Albuquerque Center
01:39AM 33.3683 -112.5867 65° Northeast 266 306 8,800 -960 Descending Albuquerque Center
01:40AM 33.3989 -112.5075 65° Northeast 261 300 8,000 -900 Descending Albuquerque Center
01:41AM 33.4250 -112.4342 67° East 244 281 7,100 -1,020 Descending Albuquerque Center
01:42AM 33.4283 -112.3550 87° East 243 280 6,000 -1,140 Descending Albuquerque Center
01:43AM 33.4311 -112.2758 88° East 241 277 4,900 -1,080 Descending Albuquerque Center
01:44AM 33.4308 -112.1964 90° East 239 275 3,900 -960 Descending Albuquerque Center
01:45AM 33.4311 -112.1294 90° East 202 232 3,000 -960 Descending Albuquerque Center
01:46AM 33.4311 -112.0761 90° East 168 193 2,000 -900 Descending Albuquerque Center
01:47AM 33.4311 -112.0344 90° East 131 151 1,200 -840 Descending Albuquerque Center
01:49AM 33.4343 -112.0116 82° East  Level Estimated
01:56AM 33.4343 -112.0116 82° East  Level Estimated